Weather History for Atka, AK

Change the Weather History Date:

Tuesday, October 30, 2012

  Actual Average (PADK) Record (PADK)
Temperature  
Mean Temperature 40 °F -  
Max Temperature 42 °F 44 °F 52 °F (1967)
Min Temperature 37 °F 35 °F 27 °F (1966)
Degree Days  
Heating Degree Days 26    
Moisture  
Dew Point 31 °F    
Average Humidity 74    
Maximum Humidity 87    
Minimum Humidity 60    
Precipitation  
Precipitation 0.00 in - - ()
Sea Level Pressure  
Sea Level Pressure 30.23 in    
Wind  
Wind Speed 20 mph (ENE)    
Max Wind Speed 36 mph    
Max Gust Speed 45 mph    
Visibility 9 miles    
Events      
Averages and records for this station are not official NWS values.
T = Trace of Precipitation, MM = Missing Value Source: NWS Daily Summary

Daily Weather History Graph

Daily Weather History Graph

Search for Another Location

Airport:

Trip Planner

Search our weather history database for the weather conditions in past years. The results will help you decide how hot, cold, wet, or windy it might be!

Date:

Astronomy

Oct. 30, 2012 Rise Set
Actual Time 9:30 AM HADT 7:09 PM HADT
Civil Twilight 8:54 AM HADT 7:45 PM HADT
Nautical Twilight 8:14 AM HADT 8:25 PM HADT
Astronomical Twilight 7:35 AM HADT 9:04 PM HADT
Moon 7:36 PM HADT (10/30) 10:41 AM HADT (10/30)
Length of Visible Light 10h 51m
Length of Day
9h 39m
Full, 99% of the Moon is Illuminated
Oct 30
Full
Nov 6
Last Quarter
Nov 13
New
Nov 20
First Quarter
Nov 28
Full

Hourly Weather History & Observations

Time (HADT) Temp. Windchill Dew Point Humidity Pressure Visibility Wind Dir Wind Speed Gust Speed Precip Events Conditions
12:16 AM 41.0 °F 32.5 °F 33.8 °F 76% 30.22 in 10.0 mi East 17.3 mph 23.0 mph N/A   Mostly Cloudy
12:36 AM 41.0 °F 32.5 °F 33.8 °F 76% 30.21 in 10.0 mi East 17.3 mph 21.9 mph N/A   Mostly Cloudy
12:56 AM 41.0 °F 32.8 °F 33.8 °F 76% 30.21 in 10.0 mi ENE 16.1 mph 23.0 mph N/A   Mostly Cloudy
1:16 AM 41.0 °F 32.5 °F 35.6 °F 81% 30.21 in 10.0 mi East 17.3 mph - N/A   Overcast
1:36 AM 41.0 °F 33.1 °F 33.8 °F 76% 30.21 in 10.0 mi ENE 15.0 mph 23.0 mph N/A   Overcast
1:56 AM 41.0 °F 32.8 °F 33.8 °F 76% 30.21 in 10.0 mi East 16.1 mph 23.0 mph N/A   Overcast
2:16 AM 41.0 °F 32.8 °F 35.6 °F 81% 30.21 in 10.0 mi East 16.1 mph - N/A   Overcast
2:36 AM 41.0 °F 31.6 °F 35.6 °F 81% 30.21 in 9.0 mi East 20.7 mph 25.3 mph N/A   Overcast
2:56 AM 39.2 °F 29.6 °F 33.8 °F 81% 30.21 in 7.0 mi ENE 19.6 mph - N/A   Overcast
3:16 AM 39.2 °F 29.3 °F 33.8 °F 81% 30.21 in 10.0 mi East 20.7 mph - N/A   Overcast
3:36 AM 41.0 °F 32.2 °F 33.8 °F 76% 30.21 in 10.0 mi East 18.4 mph 26.5 mph N/A   Overcast
3:56 AM 41.0 °F 31.9 °F 33.8 °F 76% 30.21 in 10.0 mi East 19.6 mph - N/A   Overcast
4:16 AM 39.2 °F 29.8 °F 33.8 °F 81% 30.21 in 10.0 mi East 18.4 mph - N/A   Overcast
4:36 AM 39.2 °F 30.2 °F 33.8 °F 81% 30.20 in 10.0 mi East 17.3 mph - N/A   Overcast
4:56 AM 39.2 °F 29.8 °F 33.8 °F 81% 30.20 in 10.0 mi East 18.4 mph 26.5 mph N/A   Overcast
5:16 AM 39.2 °F 29.0 °F 33.8 °F 81% 30.19 in 10.0 mi East 21.9 mph 27.6 mph N/A   Overcast
5:36 AM 39.2 °F 29.8 °F 32.0 °F 75% 30.18 in 10.0 mi ENE 18.4 mph 24.2 mph N/A   Overcast
5:56 AM 39.2 °F 29.6 °F 30.2 °F 70% 30.18 in 10.0 mi ENE 19.6 mph 25.3 mph N/A   Mostly Cloudy
6:16 AM 39.2 °F 29.3 °F 32.0 °F 75% 30.18 in 10.0 mi East 20.7 mph 27.6 mph N/A   Overcast
6:36 AM 39.2 °F 30.2 °F 30.2 °F 70% 30.19 in 10.0 mi East 17.3 mph 26.5 mph N/A   Overcast
6:56 AM 39.2 °F 29.8 °F 32.0 °F 75% 30.19 in 10.0 mi East 18.4 mph 24.2 mph N/A   Overcast
7:16 AM 39.2 °F 29.6 °F 32.0 °F 75% 30.19 in 10.0 mi ENE 19.6 mph 24.2 mph N/A   Overcast
7:36 AM 39.2 °F 29.6 °F 33.8 °F 81% 30.18 in 10.0 mi East 19.6 mph 26.5 mph N/A   Overcast
7:56 AM 39.2 °F 29.8 °F 32.0 °F 75% 30.18 in 10.0 mi East 18.4 mph 26.5 mph N/A   Overcast
8:16 AM 39.2 °F 29.0 °F 32.0 °F 75% 30.18 in 10.0 mi ENE 21.9 mph 29.9 mph N/A   Overcast
8:36 AM 39.2 °F 30.2 °F 32.0 °F 75% 30.19 in 10.0 mi East 17.3 mph 24.2 mph N/A   Overcast
8:56 AM 41.0 °F 31.4 °F 30.2 °F 65% 30.19 in 10.0 mi East 21.9 mph 28.8 mph N/A   Overcast
9:16 AM 39.2 °F 29.6 °F 32.0 °F 75% 30.19 in 10.0 mi ENE 19.6 mph 25.3 mph N/A   Overcast
9:36 AM 39.2 °F 30.2 °F 33.8 °F 81% 30.19 in 10.0 mi East 17.3 mph 25.3 mph N/A   Overcast
9:56 AM 39.2 °F 29.0 °F 35.6 °F 87% 30.19 in 8.0 mi East 21.9 mph 28.8 mph N/A   Mostly Cloudy
10:16 AM 39.2 °F 29.3 °F 35.6 °F 87% 30.20 in 9.0 mi East 20.7 mph 31.1 mph N/A   Mostly Cloudy
10:36 AM 39.2 °F 27.2 °F 35.6 °F 87% 30.21 in 7.0 mi ENE 31.1 mph 38.0 mph N/A   Overcast
10:56 AM 41.0 °F 29.8 °F 35.6 °F 81% 30.21 in 8.0 mi East 29.9 mph 36.8 mph N/A   Overcast
11:16 AM 41.0 °F 30.0 °F 35.6 °F 81% 30.20 in 10.0 mi East 28.8 mph 36.8 mph N/A   Overcast
11:36 AM 41.0 °F 30.9 °F 33.8 °F 76% 30.20 in 10.0 mi ENE 24.2 mph 33.4 mph N/A   Overcast
11:56 AM 42.8 °F 33.3 °F 33.8 °F 70% 30.21 in 10.0 mi ENE 24.2 mph 35.7 mph N/A   Overcast
12:16 PM 41.0 °F 30.9 °F 33.8 °F 76% 30.21 in 10.0 mi East 24.2 mph 33.4 mph N/A   Overcast
12:36 PM 41.0 °F 30.5 °F 33.8 °F 76% 30.21 in 9.0 mi ENE 26.5 mph 38.0 mph N/A   Overcast
12:56 PM 41.0 °F 31.6 °F 35.6 °F 81% 30.22 in 10.0 mi East 20.7 mph 31.1 mph N/A   Mostly Cloudy
1:16 PM 41.0 °F 31.1 °F 33.8 °F 76% 30.21 in 10.0 mi East 23.0 mph 36.8 mph N/A   Overcast
1:36 PM 41.0 °F 30.0 °F 33.8 °F 76% 30.22 in 8.0 mi East 28.8 mph 39.1 mph N/A   Mostly Cloudy
1:56 PM 39.2 °F 28.0 °F 33.8 °F 81% 30.22 in 8.0 mi ENE 26.5 mph 36.8 mph N/A   Mostly Cloudy
2:16 PM 39.2 °F 27.4 °F 33.8 °F 81% 30.21 in 7.0 mi ENE 29.9 mph 34.5 mph N/A   Overcast
2:36 PM 39.2 °F 29.0 °F 33.8 °F 81% 30.22 in 7.0 mi ENE 21.9 mph 32.2 mph N/A   Overcast
2:56 PM 39.2 °F 27.8 °F 32.0 °F 75% 30.22 in 8.0 mi ENE 27.6 mph 34.5 mph N/A   Mostly Cloudy
3:16 PM 39.2 °F 29.3 °F 32.0 °F 75% 30.22 in 6.0 mi ENE 20.7 mph 34.5 mph N/A   Overcast
3:36 PM 39.2 °F 28.5 °F 32.0 °F 75% 30.22 in 7.0 mi ENE 24.2 mph 32.2 mph N/A   Overcast
3:56 PM 39.2 °F 28.0 °F 30.2 °F 70% 30.22 in 6.0 mi ENE 26.5 mph 35.7 mph N/A   Overcast
4:16 PM 39.2 °F 29.0 °F 30.2 °F 70% 30.22 in 8.0 mi ENE 21.9 mph 31.1 mph N/A   Overcast
4:36 PM 39.2 °F 28.5 °F 30.2 °F 70% 30.22 in 8.0 mi ENE 24.2 mph 32.2 mph N/A   Overcast
4:56 PM 39.2 °F 29.8 °F 28.4 °F 65% 30.23 in 9.0 mi ENE 18.4 mph 36.8 mph N/A   Overcast
5:16 PM 39.2 °F 29.6 °F 28.4 °F 65% 30.24 in 10.0 mi NE 19.6 mph 25.3 mph N/A   Overcast
5:36 PM 37.4 °F 27.5 °F 28.4 °F 70% 30.24 in 9.0 mi ENE 18.4 mph 29.9 mph N/A   Overcast
5:56 PM 37.4 °F 25.6 °F 26.6 °F 65% 30.25 in 9.0 mi ENE 26.5 mph 40.3 mph N/A   Overcast
6:16 PM 37.4 °F 25.4 °F 28.4 °F 70% 30.25 in 9.0 mi ENE 27.6 mph 39.1 mph N/A   Overcast
6:36 PM 37.4 °F 25.9 °F 28.4 °F 70% 30.26 in 7.0 mi ENE 25.3 mph 38.0 mph N/A   Overcast
6:56 PM 37.4 °F 26.6 °F 28.4 °F 70% 30.26 in 9.0 mi NE 21.9 mph 34.5 mph N/A   Overcast
7:16 PM 37.4 °F 26.9 °F 28.4 °F 70% 30.26 in 9.0 mi ENE 20.7 mph 35.7 mph N/A   Overcast
7:36 PM 37.4 °F 26.9 °F 26.6 °F 65% 30.27 in 10.0 mi ENE 20.7 mph 34.5 mph N/A   Overcast
7:56 PM 37.4 °F 26.6 °F 26.6 °F 65% 30.27 in 10.0 mi ENE 21.9 mph 33.4 mph N/A   Overcast
8:16 PM 37.4 °F 26.6 °F 26.6 °F 65% 30.27 in 10.0 mi ENE 21.9 mph 32.2 mph N/A   Overcast
8:36 PM 37.4 °F 25.9 °F 26.6 °F 65% 30.28 in 10.0 mi ENE 25.3 mph 39.1 mph N/A   Overcast
8:56 PM 37.4 °F 24.0 °F 26.6 °F 65% 30.27 in 10.0 mi ENE 35.7 mph 44.9 mph N/A   Overcast
9:16 PM 37.4 °F 26.1 °F 28.4 °F 70% 30.30 in 10.0 mi ENE 24.2 mph 38.0 mph N/A   Overcast
9:36 PM 37.4 °F 25.2 °F 26.6 °F 65% 30.30 in 10.0 mi ENE 28.8 mph 43.7 mph N/A   Overcast
9:56 PM 37.4 °F 25.9 °F 26.6 °F 65% 30.30 in 10.0 mi ENE 25.3 mph 31.1 mph N/A   Overcast
10:16 PM 37.4 °F 25.9 °F 28.4 °F 70% 30.30 in 10.0 mi ENE 25.3 mph 33.4 mph N/A   Overcast
10:36 PM 37.4 °F 25.0 °F 26.6 °F 65% 30.31 in 10.0 mi ENE 29.9 mph 43.7 mph N/A   Overcast
10:56 PM 37.4 °F 26.4 °F 24.8 °F 60% 30.32 in 10.0 mi NE 23.0 mph 38.0 mph N/A   Overcast
11:16 PM 37.4 °F 26.9 °F 26.6 °F 65% 30.33 in 10.0 mi ENE 20.7 mph 32.2 mph N/A   Overcast
11:36 PM 37.4 °F 26.6 °F 24.8 °F 60% 30.34 in 10.0 mi NE 21.9 mph 34.5 mph N/A   Overcast
11:56 PM 37.4 °F 27.2 °F 24.8 °F 60% 30.34 in 10.0 mi ENE 19.6 mph 29.9 mph N/A   Overcast